Tiempo atmosférico en la estación meteorológica de Lanzarote Aeropuerto, Las Palmas (14 m.)



Fecha
DESCASC
Temp. máxima en grados centígrados (hora)
DESCASC
Temp. mínima en grados centígrados (hora)
DESCASC
Temp. media en grados centígrados
DESCASC
Racha de viento máxima en m/sg (hora)
DESCASC
Velocidad máxima media en intervalos de 10 minutos(hora)
DESCASC
Precipitaciones diarias en mm
DESCASC
Precipitaciones de 00:00 a 06:00 en mm
DESCASC
Precipitaciones de 06:00 a 12:00 en mm
DESCASC
Precipitaciones de 12:00 a 18:00 en mm
DESCASC
Precipitaciones de 18:00 a 24:00 en mm
DESCASC
29-10-2020 27.8 (14:40) 18.9 (03:00) 23.3 13.33 (08:30) 11.11 (09:20) 0.4 0 0 0.4 0
28-10-2020 25.2 (12:10) 19.6 (07:30) 22.4 13.89 (11:20) 9.72 (12:40) 0.6 0 0 0 0.6
27-10-2020 26.2 (13:30) 18 (00:00) 22.1 12.78 (13:40) 9.17 (16:50) 0 0 0 0 0
26-10-2020 26.7 (13:30) 18.1 (00:00) 22.4 14.44 (14:00) 8.61 (16:20) 0 0 0 0 0
25-10-2020 27 (13:40) 16.8 (00:00) 21.9 16.11 (10:40) 8.61 (16:10) 0 0 0 0 0
24-10-2020 26.1 (15:00) 16.9 (00:00) 21.5 13.89 (13:40) 9.17 (10:10) 0 0 0 0 0
23-10-2020 25.4 (13:50) 16 (00:00) 20.7 11.39 (14:30) 7.22 (14:40) 0 0 0 0 0
22-10-2020 25.4 (12:30) 18.2 (00:00) 21.8 8.89 (10:40) 5.83 (18:50) 0 0 0 0 0
21-10-2020 27.5 (13:40) 20.4 (00:00) 23.9 11.39 (14:00) 7.78 (14:00) 1 0 0.3 0 0.7
20-10-2020 28.7 (14:30) 19.4 (00:00) 24.1 15 (13:10) 11.11 (17:00) 0 0 0 0 0
19-10-2020 25 (14:50) 16.6 (00:00) 20.8 7.22 (14:40) 5.56 (14:40) 0 0 0 0 0
18-10-2020 23.8 (14:50) 16.2 (00:00) 20 5.83 (14:40) 3.89 (14:20) 0 0 0 0 0
17-10-2020 24.1 (15:20) 17.9 (00:00) 21 7.78 (11:20) 5.28 (11:20) 0 0 0 0 0
16-10-2020 27.6 (14:50) 17.9 (00:00) 22.8 11.39 (15:40) 7.22 (18:00) 0 0 0 0 0
15-10-2020 26.3 (16:10) 19.7 (00:00) 23 11.39 (17:10) 7.22 (18:20) 0 0 0 0 0
14-10-2020 28.8 (15:30) 17.5 (00:00) 23.1 13.89 (00:30) 10.28 (00:30) 0 0 0 0 0
13-10-2020 30.4 (15:00) 21 (00:00) 25.7 13.89 (23:00) 11.39 (23:20) 0 0 0 0 0
12-10-2020 33.6 (14:50) 22.9 (00:00) 28.2 10.83 (10:20) 7.5 (15:20) 0 0 0 0 0
11-10-2020 30 (15:30) 19.7 (00:00) 24.9 12.5 (19:40) 8.06 (17:10) 0 0 0 0 0
10-10-2020 28.9 (15:10) 19.9 (00:00) 24.4 12.78 (11:00) 9.72 (19:20) 0 0 0 0 0
09-10-2020 29.7 (14:20) 20.7 (00:00) 25.2 12.78 (17:40) 9.72 (17:40) 0 0 0 0 0
08-10-2020 27.9 (16:10) 19.9 (00:00) 23.9 13.89 (21:10) 10.28 (21:50) 0 0 0 0 0
07-10-2020 28.8 (16:50) 20.7 (00:00) 24.8 9.72 (14:40) 7.22 (16:10) 0 0 0 0 0
06-10-2020 25.4 (16:30) 19.4 (00:00) 22.4 12.5 (12:40) 8.89 (12:40) 0 0 0 0 0
05-10-2020 27.3 (14:20) 19.1 (00:00) 23.2 12.5 (15:00) 8.61 (12:40) 0 0 0 0 0
04-10-2020 27.1 (14:00) 19.9 (00:00) 23.5 13.89 (16:00) 10.83 (18:20) 0.9 0.9 0 0 0
03-10-2020 28.5 (14:30) 20.9 (00:00) 24.7 16.39 (14:30) 12.78 (14:20) 0.2 0 0 0 0.2
02-10-2020 28.2 (14:20) 21.3 (00:00) 24.8 16.94 (14:10) 11.11 (11:20) 0 0 0 0 0
01-10-2020 27.8 (16:40) 20 (00:00) 23.9 14.44 (16:30) 10.56 (14:50) 0 0 0 0 0
30-09-2020 29 (15:10) 19.7 (00:00) 24.4 13.33 (13:10) 8.06 (18:00) 0 0 0 0 0

Gráficas

Temp. máximas Temp. mínimas Temp. medias Precipitaciones Rachas de viento máximas Velocidades máximas media en intervalos de 10 minutos

Datos horarios

Fecha y hora oficial Temperatura (ºC) Velocidad del viento (km/h) Dirección del viento Racha (km/h) Dirección de racha Precipitación (mm) Presión (hPa) Tendencia (hPa) Humedad (%)
2020-10-29 23:00:00 20.9 11 Norte 28 Norte 0 1015.8 0.5 80
2020-10-29 22:00:00 21.1 18 Norte 32 Norte 0 1016 0.9 84
2020-10-29 21:00:00 21.1 21 Norte 35 Norte 0 1015.6 1 84
2020-10-29 20:00:00 21.3 23 Norte 37 Norte 0 1015.3 1 84
2020-10-29 19:00:00 21.8 24 Norte 35 Norte 0 1015.1 0.7 80
2020-10-29 18:00:00 23.1 24 Norte 33 Norte 0 1014.6 0 72
2020-10-29 17:00:00 24.5 26 Norte 37 Norte 0 1014.3 -0.4 64
2020-10-29 16:00:00 26.6 21 Norte 35 Norte 0 1014.4 -1.2 55
2020-10-29 15:00:00 27.4 24 Norte 42 Nordeste 0.2 1014.6 -2.2 54
2020-10-29 14:00:00 27.4 21 Nordeste 42 Norte 0.2 1014.7 -- 52
2020-10-29 13:00:00 26.9 30 Norte 45 Norte 0 1015.6 -- 55
2020-10-29 12:00:00 26 30 Norte 46 Norte 0 1016.8 -- 58
2020-10-29 11:00:00 25.1 32 Norte 46 Norte 0 1017.2 -- 62
2020-10-29 10:00:00 22.8 32 Norte 48 Norte 0 1017.1 -- 70
2020-10-29 09:00:00 22.3 36 Norte 48 Norte 0 1016.9 -- 72
2020-10-29 08:00:00 20.5 26 Norte 35 Norte 0 1016.4 -- 79
2020-10-29 07:00:00 19.7 24 Norte 37 Norte 0 1016 -- 82
2020-10-29 06:00:00 19.3 13 Nordeste 26 Nordeste 0 1016.1 -- 82
2020-10-29 05:00:00 19.3 14 Norte 33 Norte 0 1016.1 -- 79
2020-10-29 04:00:00 19.2 12 Norte 24 Norte 0 1016.5 -- 78
2020-10-29 03:00:00 18.9 11 Norte 28 Norte 0 1016.6 -- 81
2020-10-29 02:00:00 19.5 19 Norte 28 Norte 0 1016.7 -- 77
2020-10-29 01:00:00 20 13 Norte 24 Norte 0 1017.1 -- 76
2020-10-29 00:00:00 19.9 15 Norte 28 Norte 0 1017.6 -- 75
2020-10-28 23:00:00 20 19 Norte 28 Norte 0 1017.7 -- 72
2020-10-28 22:00:00 20.4 16 Nordeste 32 Nordeste 0 1017.8 -- 70
2020-10-28 21:00:00 20.6 19 Nordeste 28 Nordeste 0.6 1017.8 -- 75
2020-10-28 20:00:00 20.5 14 Norte 30 Nordeste 0 1017.8 -- 71
2020-10-28 19:00:00 20.9 17 Nordeste 33 Nordeste 0 1017.6 -- 71
2020-10-28 18:00:00 21.6 23 Norte 45 Norte 0 1017.1 -- 69
2020-10-28 17:00:00 22.6 31 Norte 42 Norte 0 1016.6 -- 60
2020-10-28 16:00:00 23.6 30 Norte 39 Norte 0 1016.8 -- 55
2020-10-28 15:00:00 24.6 22 Nordeste 48 Norte 0 1016.9 -- 48
2020-10-28 14:00:00 23.2 25 Norte 45 Norte 0 1017.3 -- 56
2020-10-28 13:00:00 24 33 Norte 48 Norte 0 1018.1 -- 52
2020-10-28 12:00:00 24.6 26 Norte 50 Norte 0 1018.8 -- 46
2020-10-28 11:00:00 23.1 33 Norte 46 Norte 0 1019.1 -- 52
2020-10-28 10:00:00 22.3 28 Norte 39 Norte 0 1019.2 -- 53
2020-10-28 09:00:00 21.3 27 Norte 37 Norte 0 1018.7 -- 59
2020-10-28 08:00:00 20.2 13 Norte 22 Norte 0 1018 -- 64
2020-10-28 07:00:00 20.1 13 Norte 24 Norte 0 1017.8 -- 60
2020-10-28 06:00:00 20.6 13 Nordeste 30 Norte 0 1017.2 -- 62
2020-10-28 05:00:00 20.5 16 Norte 32 Norte 0 1017 -- 62
2020-10-28 04:00:00 20.4 13 Nordeste 26 Norte 0 1017 -- 67
2020-10-28 03:00:00 20.4 14 Norte 30 Norte 0 1017.1 -- 65
2020-10-28 02:00:00 20.3 23 Norte 32 Norte 0 1017.4 -- 73
2020-10-28 01:00:00 20.6 22 Norte 33 Norte 0 1017.8 -- 69
2020-10-28 00:00:00 20.5 22 Norte 30 Norte 0 1018.2 -- 67
2020-10-27 23:00:00 20.3 20 Norte 32 Norte 0 1019.2 -- 76
2020-10-27 22:00:00 20.2 14 Norte 33 Norte 0 1019 -- 76
2020-10-27 21:00:00 20.7 19 Norte 37 Norte 0 1018.6 -- 72
2020-10-27 20:00:00 20.7 24 Norte 46 Norte 0 1018.1 -- 70
2020-10-27 19:00:00 21.2 27 Norte 37 Norte 0 1017.5 -- 67
2020-10-27 18:00:00 21.8 28 Norte 42 Norte 0 1017.4 -- 61
2020-10-27 17:00:00 22.5 32 Norte 42 Norte 0 1017.3 -- 56
2020-10-27 16:00:00 23.2 29 Norte 45 Norte 0 1017.4 -- 52
2020-10-27 15:00:00 23.8 29 Norte 45 Norte 0 1017.5 -- 53
2020-10-27 14:00:00 24.6 26 Norte 46 Norte 0 1017.8 -- 56
2020-10-27 13:00:00 24.6 26 Norte 41 Norte 0 1018.5 -- 49
2020-10-27 12:00:00 24.7 26 Norte 42 Norte 0 1019.3 -- 47
2020-10-27 11:00:00 23.4 26 Norte 39 Norte 0 1019.9 -- 55
2020-10-27 10:00:00 23.4 27 Norte 41 Norte 0 1020.1 -- 49
2020-10-27 09:00:00 22.2 23 Nordeste 32 Norte 0 1019.6 -- 57
2020-10-27 08:00:00 20.2 13 Nordeste 24 Nordeste 0 1019 -- 72
2020-10-27 07:00:00 19.4 10 Norte 13 Norte 0 1018.8 -- 75
2020-10-27 06:00:00 18.3 10 Norte 15 Norte 0 1018.6 -- 83
2020-10-27 05:00:00 18.1 9 Norte 18 Norte 0 1018.5 -- 85
2020-10-27 04:00:00 18.2 12 Norte 21 Norte 0 1018.4 -- 86
2020-10-27 03:00:00 18.1 12 Norte 26 Norte 0 1018.7 -- 85
2020-10-27 02:00:00 19.1 17 Norte 26 Norte 0 1019 -- 83
2020-10-27 01:00:00 19 15 Norte 18 Norte 0 1019.5 -- 80
2020-10-27 00:00:00 19 7 Norte 24 Norte 0 1019.9 -- 79
2020-10-26 23:00:00 20.3 10 Nordeste 32 Nordeste 0 1019.9 -- 79
2020-10-26 22:00:00 21 17 Nordeste 32 Nordeste 0 1020.1 -- 78
2020-10-26 21:00:00 21.4 23 Norte 33 Norte 0 1020 -- 79
2020-10-26 20:00:00 21.3 28 Norte 37 Norte 0 1019.6 -- 81
2020-10-26 19:00:00 21.7 24 Norte 37 Norte 0 1019.1 -- 76
2020-10-26 18:00:00 22.6 26 Norte 39 Norte 0 1018.8 -- 69
2020-10-26 17:00:00 24.4 29 Norte 42 Norte 0 1018.8 -- 62
2020-10-26 16:00:00 25.9 30 Norte 41 Norte 0 1018.6 -- 55
2020-10-26 15:00:00 26.2 21 Nordeste 41 Nordeste 0 1018.7 -- 50
2020-10-26 14:00:00 25.9 28 Nordeste 52 Nordeste 0 1018.8 -- 51
2020-10-26 13:00:00 26 26 Nordeste 45 Nordeste 0 1019.5 -- 52
2020-10-26 12:00:00 25.4 24 Nordeste 42 Nordeste 0 1020.5 -- 54
2020-10-26 11:00:00 24.4 27 Nordeste 41 Norte 0 1021.1 -- 57
2020-10-26 10:00:00 23.8 27 Nordeste 42 Norte 0 1021.2 0.7 58
2020-10-26 09:00:00 21.4 21 Nordeste 33 Nordeste 0 1021.3 -- 66
2020-10-26 08:00:00 20.2 15 Nordeste 26 Nordeste 0 1020.7 -- 69
2020-10-26 07:00:00 18.6 8 Nordeste 26 Norte 0 1020.5 -- 77
2020-10-26 06:00:00 18.8 14 Norte 26 Nordeste 0 1019.9 -- 75
2020-10-26 05:00:00 19 14 Nordeste 24 Nordeste 0 1019.7 -- 74
2020-10-26 04:00:00 18.4 19 Norte 26 Norte 0 1019.8 -- 76
2020-10-26 03:00:00 18.2 14 Norte 21 Norte 0 1020.6 -- 76
2020-10-26 02:00:00 18.8 15 Norte 22 Nordeste 0 1020.8 -- 74
2020-10-26 01:00:00 19.2 12 Norte 28 Nordeste 0 1021.3 -- 72
2020-10-26 00:00:00 19.5 18 Nordeste 32 Nordeste 0 1021.1 -- 71
2020-10-25 23:00:00 19.7 19 Nordeste 28 Nordeste 0 1021.7 -- 70
2020-10-25 22:00:00 19.9 18 Nordeste 33 Nordeste 0 1022.1 -- 69
2020-10-25 21:00:00 20.1 18 Nordeste 35 Norte 0 1021.8 -- 68
2020-10-25 20:00:00 20.4 20 Nordeste 32 Norte 0 1021.6 -- 68
2020-10-25 19:00:00 21 20 Nordeste 35 Norte 0 1021.1 -- 65
2020-10-25 18:00:00 22.3 24 Norte 39 Norte 0 1020.5 -- 61
2020-10-25 17:00:00 23.8 27 Norte 42 Norte 0 1020.2 -- 55
2020-10-25 16:00:00 25.1 30 Norte 45 Norte 0 1020.1 -- 52
2020-10-25 15:00:00 25.9 25 Nordeste 42 Norte 0 1019.9 -- 50
2020-10-25 14:00:00 26.4 26 Norte 50 Norte 0 1020.1 -- 48
2020-10-25 13:00:00 26.2 27 Norte 41 Norte 0 1020.7 -- 49
2020-10-25 12:00:00 25.8 30 Norte 50 Nordeste 0 1021.4 -- 51
2020-10-25 11:00:00 25 26 Norte 58 Nordeste 0 1021.8 -- 51
2020-10-25 10:00:00 23.7 23 Norte 37 Norte 0 1022 -- 56
2020-10-25 09:00:00 21.6 22 Nordeste 35 Norte 0 1021.7 -- 61
2020-10-25 08:00:00 18.7 17 Norte 24 Norte 0 1021.3 -- 74
2020-10-25 07:00:00 17.2 16 Norte 22 Norte 0 1021.1 -- 79
2020-10-25 06:00:00 16.9 12 Norte 18 Norte 0 1021 -- 80
2020-10-25 05:00:00 17.7 12 Norte 21 Norte 0 1020.8 -- 75
2020-10-25 04:00:00 18.6 16 Nordeste 24 Nordeste 0 1020.7 -- 73
2020-10-25 03:00:00 17.6 16 Norte 21 Norte 0 1020.9 -- 76
2020-10-25 02:00:00 18.7 14 Norte 22 Norte 0 1021.4 -- 72
2020-10-25 01:00:00 18.9 17 Norte 28 Norte 0 1021.6 -- 72
2020-10-25 00:00:00 20.1 18 Nordeste 33 Norte 0 1022.5 -- 72
2020-10-24 23:00:00 20.5 25 Norte 35 Nordeste 0 1022.8 -- 69
2020-10-24 22:00:00 20.5 21 Nordeste 32 Norte 0 1022.7 -- 72
2020-10-24 21:00:00 20.7 15 Nordeste 32 Nordeste 0 1022.5 -- 72
2020-10-24 20:00:00 21.1 23 Nordeste 37 Nordeste 0 1021.6 -- 69
2020-10-24 19:00:00 22 26 Nordeste 41 Nordeste 0 1021.1 -- 65
2020-10-24 18:00:00 23.5 28 Nordeste 41 Nordeste 0 1021 -- 57
2020-10-24 17:00:00 24.6 26 Nordeste 39 Nordeste 0 1021.1 -- 49
2020-10-24 16:00:00 25.3 24 Nordeste 45 Nordeste 0 1021.3 -- 44
2020-10-24 15:00:00 25.9 22 Nordeste 46 Nordeste 0 1021.5 -- 38
2020-10-24 14:00:00 25.5 30 Nordeste 50 Nordeste 0 1022 -- 48
2020-10-24 13:00:00 25.2 28 Nordeste 45 Nordeste 0 1022.6 -- 52
2020-10-24 12:00:00 24.3 27 Nordeste 48 Nordeste 0 1023.3 -- 57
2020-10-24 11:00:00 23.8 31 Nordeste 48 Nordeste 0 1023.3 -- 52
2020-10-24 10:00:00 21.6 29 Nordeste 46 Nordeste 0 1023 -- 62
2020-10-24 09:00:00 19.1 16 Nordeste 28 Norte 0 1022.7 -- 72
2020-10-24 08:00:00 17.3 22 Norte 30 Norte 0 1022 -- 78
2020-10-24 07:00:00 17 17 Norte 21 Norte 0 1022 -- 81
2020-10-24 06:00:00 17.4 15 Norte 22 Norte 0 1021.8 -- 80
2020-10-24 05:00:00 17.2 16 Norte 22 Norte 0 1021.6 -- 81
2020-10-24 04:00:00 17.2 18 Norte 22 Norte 0 1021.9 -- 82
2020-10-24 03:00:00 17.6 13 Norte 22 Norte 0 1022.4 -- 79
2020-10-24 02:00:00 17.9 14 Norte 18 Norte 0 1022.8 -- 81
2020-10-24 01:00:00 18.2 13 Norte 17 Norte 0 1023.1 -- 79
2020-10-24 00:00:00 18.7 14 Norte 24 Nordeste 0 1023.2 -- 73
2020-10-23 23:00:00 19.7 15 Norte 21 Norte 0 1023.2 -- 72
2020-10-23 22:00:00 20.2 15 Nordeste 22 Norte 0 1023.1 -- 69
2020-10-23 21:00:00 20.5 14 Nordeste 28 Nordeste 0 1022.7 -- 69
2020-10-23 20:00:00 21 16 Nordeste 33 Nordeste 0 1022.1 -- 65
2020-10-23 19:00:00 22.1 19 Nordeste 35 Nordeste 0 1021.5 -- 58
2020-10-23 18:00:00 23.5 23 Nordeste 37 Este 0 1021.3 -- 49
2020-10-23 17:00:00 24.4 22 Nordeste 37 Nordeste 0 1021.3 -- 49
2020-10-23 16:00:00 24.9 22 Nordeste 37 Nordeste 0 1021.3 -- 44
2020-10-23 15:00:00 24.6 23 Este 41 Este 0 1021.3 -- 52
2020-10-23 14:00:00 25.1 24 Este 39 Nordeste 0 1021.5 -- 49
2020-10-23 13:00:00 25.1 24 Este 37 Nordeste 0 1021.8 -- 49
2020-10-23 12:00:00 24.5 17 Este 30 Nordeste 0 1022.2 -- 49
2020-10-23 11:00:00 23 18 Nordeste 33 Nordeste 0 1022 -- 52
2020-10-23 10:00:00 21.9 18 Nordeste 30 Nordeste 0 1021.5 -- 57
2020-10-23 09:00:00 18 14 Norte 18 Norte 0 1021.1 -- 73
2020-10-23 08:00:00 16.3 9 Norte 21 Norte 0 1020.5 -- 82
2020-10-23 07:00:00 17.3 15 Norte 24 Norte 0 1019.9 -- 80
2020-10-23 06:00:00 17.1 12 Norte 22 Noroeste 0 1019.2 -- 78
2020-10-23 05:00:00 17.2 17 Norte 24 Norte 0 1019 -- 78
2020-10-23 04:00:00 17.4 12 Norte 18 Norte 0 1018.9 -- 77
2020-10-23 03:00:00 17.4 13 Norte 21 Norte 0 1019 -- 77
2020-10-23 02:00:00 17.8 13 Norte 18 Norte 0 1019 -- 76
2020-10-23 01:00:00 17.8 13 Norte 18 Norte 0 1019.2 -- 76
2020-10-23 00:00:00 18.6 15 Norte 21 Norte 0 1019 -- 75
2020-10-22 23:00:00 18.4 13 Norte 17 Norte 0 1018.9 -- 74
2020-10-22 22:00:00 18.9 8 Norte 18 Norte 0 1018.6 -- 73
2020-10-22 21:00:00 19.5 13 Norte 22 Norte 0 1018 -- 71
2020-10-22 20:00:00 20.3 13 Norte 26 Norte 0 1017.2 -- 69
2020-10-22 19:00:00 22 21 Norte 26 Norte 0 1016.4 -- 60
2020-10-22 18:00:00 22.7 16 Noroeste 24 Norte 0 1015.9 -- 53
2020-10-22 17:00:00 22.1 15 Este 32 Este 0 1015.4 -- 72
2020-10-22 16:00:00 22.2 15 Este 26 Este 0 1015.2 -- 72
2020-10-22 15:00:00 23.3 12 Este 22 Sudeste 0 1015 -- 64
2020-10-22 14:00:00 22.9 9 Sudeste 18 Este 0 1015.3 -- 65
2020-10-22 13:00:00 24.2 17 Noroeste 26 Norte 0 1015.6 -- 51
2020-10-22 12:00:00 24.4 16 Norte 28 Norte 0 1015.6 -- 55
2020-10-22 11:00:00 22.1 15 Noroeste 32 Noroeste 0 1015.6 -- 64
2020-10-22 10:00:00 21.9 10 Oeste 18 Noroeste 0 1015 -- 68
2020-10-22 09:00:00 19.2 6 Noroeste 13 Noroeste 0 1014.3 -- 83
2020-10-22 08:00:00 19.2 11 Noroeste 15 Noroeste 0 1013.5 -- 83
2020-10-22 07:00:00 19.2 3 Norte 13 Oeste 0 1012.9 -- 83
2020-10-22 06:00:00 19.2 6 Noroeste 17 Noroeste 0 1012.8 -- 85
2020-10-22 05:00:00 19.4 7 Noroeste 11 Noroeste 0 1012.4 -- 82
2020-10-22 04:00:00 19.7 9 Noroeste 13 Noroeste 0 1012.6 -- 79
2020-10-22 03:00:00 20.1 5 Noroeste 8 Noroeste 0 1012.6 -- 90
2020-10-22 02:00:00 20.5 2 Oeste 8 Oeste 0 1013 -- 88
2020-10-22 01:00:00 20.4 5 Sudoeste 9 Sur 0 1013 -- 89
2020-10-22 00:00:00 20.6 8 Sur 9 Sur 0 1013.4 -- 87
2020-10-21 23:00:00 20.6 2 Noroeste 13 Norte 0.4 1013.4 -- 84
2020-10-21 22:00:00 21.2 15 Noroeste 26 Oeste 0.3 1013.2 -- 82
2020-10-21 21:00:00 22.4 13 Oeste 21 Oeste 0 1012.6 -- 72
2020-10-21 20:00:00 22.6 13 Oeste 22 Oeste 0 1012 -- 67
2020-10-21 19:00:00 23 17 Oeste 41 Oeste 0 1011.7 -- 64
2020-10-21 18:00:00 23.7 19 Oeste 32 Oeste 0 1011.4 -- 63
2020-10-21 17:00:00 24.3 19 Oeste 35 Oeste 0 1011.4 -- 61
2020-10-21 16:00:00 25.3 21 Oeste 39 Oeste 0 1011.3 -- 58
2020-10-21 15:00:00 26.8 24 Oeste 39 Sudoeste 0 1011.3 -- 47
2020-10-21 14:00:00 26.8 28 Oeste 41 Oeste 0 1011.7 -- 48
2020-10-21 13:00:00 26.2 22 Oeste 33 Sur 0 1012.3 -- 53
2020-10-21 12:00:00 24.2 16 Sur 30 Oeste 0.1 1012.6 -- 72
2020-10-21 11:00:00 23.5 21 Sudoeste 35 Noroeste 0.2 1012.9 -- 76
2020-10-21 10:00:00 23.7 13 Sur 18 Sudoeste 0 1012.2 -- 71
2020-10-21 09:00:00 21.6 7 Oeste 11 Oeste 0 1012 -- 77
2020-10-21 08:00:00 21.3 7 Oeste 11 Noroeste 0 1011.7 -- 77
2020-10-21 07:00:00 21.7 7 Oeste 11 Oeste 0 1011.7 -- 76
2020-10-21 06:00:00 21.8 9 Oeste 11 Oeste 0 1011.3 -- 78
2020-10-21 05:00:00 21.7 2 Sudoeste 8 Sur 0 1011.3 -- 79
2020-10-21 04:00:00 22.1 6 Sudeste 11 Sudeste 0 1011.3 -- 76
2020-10-21 03:00:00 22.3 8 Oeste 15 Oeste 0 1011.9 -- 72
2020-10-21 02:00:00 22.5 2 Oeste 24 Norte 0 1012.2 -- 71
2020-10-21 01:00:00 22.6 5 Noroeste 21 Oeste 0 1012.7 -- 73
2020-10-21 00:00:00 22.9 4 Sudeste 21 Sur 0 1012.4 -- 75
2020-10-20 23:00:00 22.9 12 Sudoeste 24 Oeste 0 1012.8 -- 73
2020-10-20 22:00:00 23.1 18 Oeste 28 Noroeste 0 1012.3 -- 76
2020-10-20 21:00:00 23.5 12 Oeste 18 Oeste 0 1012.2 -- 74
2020-10-20 20:00:00 23.9 9 Sudoeste 18 Sudoeste 0 1011.3 -- 69
2020-10-20 19:00:00 25 12 Oeste 42 Oeste 0 1011.3 -- 71
2020-10-20 18:00:00 26.6 29 Oeste 52 Oeste 0 1010.5 -- 69
2020-10-20 17:00:00 26 40 Oeste 54 Oeste 0 1010.7 -- 71
2020-10-20 16:00:00 24.9 33 Oeste 50 Oeste 0 1011 -- 76
2020-10-20 15:00:00 27.7 34 Oeste 52 Oeste 0 1011.3 -- 57
2020-10-20 14:00:00 28.2 32 Sudoeste 54 Sudoeste 0 1011.8 -- 55
2020-10-20 13:00:00 27.4 27 Sudoeste 39 Oeste 0 1012.2 -- 65
2020-10-20 12:00:00 26.6 28 Sudoeste 39 Sudoeste 0 1012.3 -- 68
2020-10-20 11:00:00 24.2 14 Sur 24 Sur 0 1012.1 -- 84
2020-10-20 10:00:00 23.2 14 Sudoeste 18 Sur 0 1011.7 -- 88
2020-10-20 09:00:00 22.2 13 Sur 22 Sudoeste 0 1011.5 -- 93
2020-10-20 08:00:00 20.9 12 Sur 17 Sur 0 1011.7 0.2 95
2020-10-20 07:00:00 20.5 13 Sur 17 Sudoeste 0 1011.8 -- 93
2020-10-20 06:00:00 21 11 Oeste 13 Oeste 0 1011.7 -- 92
2020-10-20 05:00:00 21.3 9 Sudoeste 13 Sudoeste 0 1011.5 -1.2 93
2020-10-20 04:00:00 21.2 9 Oeste 13 Oeste 0 1011.7 -1.5 93
2020-10-20 03:00:00 20.3 8 Oeste 9 Oeste 0 1012.5 -- 91
2020-10-20 02:00:00 19.8 2 Noroeste 8 Oeste 0 1012.7 -1.5 85
2020-10-20 01:00:00 20.1 5 Noroeste 8 Noroeste 0 1013.2 -1 85
2020-10-20 00:00:00 20.7 0 Calma 9 Sudoeste 0 1013.5 -- 85
2020-10-19 23:00:00 20.9 5 Sudoeste 9 Sudoeste 0 1014.2 0.3 85
2020-10-19 22:00:00 21.4 7 Sudoeste 17 Sudoeste 0 1014.2 0.4 83
2020-10-19 21:00:00 21.6 12 Sudoeste 15 Sudoeste 0 1014.1 -- 83
2020-10-19 20:00:00 21.9 12 Sudoeste 18 Oeste 0 1013.9 -- 81
2020-10-19 19:00:00 22.4 13 Sudoeste 18 Sur 0 1013.8 -0.3 79
2020-10-19 18:00:00 22.8 14 Sur 21 Sur 0 1014 -- 76
2020-10-19 17:00:00 23.6 15 Sur 21 Sur 0 1013.9 -- 74
2020-10-19 16:00:00 24.7 15 Sur 22 Sur 0 1014.1 -- 71
2020-10-19 15:00:00 24.5 18 Sur 26 Sur 0 1014.5 -- 70
2020-10-19 14:00:00 24.4 17 Sur 22 Sur 0 1015 -- 70
2020-10-19 13:00:00 24.3 15 Sur 21 Sur 0 1015.8 -- 71
2020-10-19 12:00:00 23.9 14 Sur 21 Sur 0 1015.8 -- 70
2020-10-19 11:00:00 23.4 14 Sur 18 Sur 0 1015.7 -- 71
2020-10-19 10:00:00 22.3 12 Sur 15 Sur 0 1015.3 -- 74
2020-10-19 09:00:00 19.5 3 Sudoeste -- -- 0 1014.4 -- 88
2020-10-19 08:00:00 16.9 4 Noroeste 5 Norte 0 1013.8 -- 91
2020-10-19 07:00:00 16.7 0 Calma -- -- 0 1013.3 -- 90
2020-10-19 06:00:00 17.4 0 Calma -- -- 0 1013.2 -- 89
2020-10-19 05:00:00 17.1 0 Calma -- -- 0 1013.1 -- 87
2020-10-19 04:00:00 18 0 Calma 8 Noroeste 0 1013.6 -- 87
2020-10-19 03:00:00 18.3 6 Noroeste -- -- 0 1013.9 -- 86
2020-10-19 02:00:00 18.1 6 Noroeste 8 Noroeste 0 1014.4 -- 84
2020-10-19 01:00:00 18.8 0 Calma 8 Oeste 0 1014.7 -- 82
2020-10-19 00:00:00 19.4 6 Oeste 13 Oeste 0 1014.8 -- 81
2020-10-18 23:00:00 19.7 0 Calma 15 Oeste 0 1014.9 -- 77
2020-10-18 22:00:00 20.2 8 Sudoeste 13 Sudoeste 0 1014.6 -- 79
2020-10-18 21:00:00 20.1 10 Sur 13 Sur 0 1013.8 -- 76
2020-10-18 20:00:00 20.5 8 Sur 13 Sur 0 1013.2 -- 75
2020-10-18 19:00:00 21.6 11 Sur 15 Sur 0 1013.1 -- 71
2020-10-18 18:00:00 22.6 10 Sur 15 Sur 0 1012.9 -- 66
2020-10-18 17:00:00 22.3 12 Sur 17 Sur 0 1013.1 -- 66
2020-10-18 16:00:00 22.6 12 Sur 18 Sudeste 0 1013 -- 64
2020-10-18 15:00:00 23.5 13 Sur 21 Sur 0 1013.2 -- 60
2020-10-18 14:00:00 23.1 13 Sur 18 Sur 0 1013.8 -- 63
2020-10-18 13:00:00 22.9 12 Sur 18 Sudeste 0 1014.6 -- 65
2020-10-18 12:00:00 23.1 12 Sur 18 Sur 0 1014.7 -- 63
2020-10-18 11:00:00 21.6 7 Sur 11 Sur 0 1014.7 -- 70
2020-10-18 10:00:00 20.5 3 Sur 8 Este 0 1014.4 -- 74
2020-10-18 09:00:00 17.6 0 Calma 9 Noroeste 0 1013.7 -- 83
2020-10-18 08:00:00 16.3 3 Norte 9 Noroeste 0 1013 -- 84
2020-10-18 07:00:00 16.9 6 Noroeste 11 Noroeste 0 1013.2 -- 83
2020-10-18 06:00:00 16.9 11 Norte 13 Norte 0 1012.8 -- 85
2020-10-18 05:00:00 16.8 8 Norte 11 Norte 0 1013 -- 84
2020-10-18 04:00:00 16.9 8 Norte 11 Norte 0 1013.4 -- 83
2020-10-18 03:00:00 17.2 10 Norte 13 Norte 0 1013.8 -- 82
2020-10-18 02:00:00 18.1 9 Norte 13 Norte 0 1014.2 -- 80
2020-10-18 01:00:00 18.3 8 Norte 11 Norte 0 1014.7 -- 78
2020-10-18 00:00:00 18.7 9 Norte 11 Norte 0 1014.9 -- 74
2020-10-17 23:00:00 19.2 9 Norte 9 Norte 0 1014.8 -- 72
2020-10-17 22:00:00 20.5 8 Nordeste 15 Nordeste 0 1014.4 -- 70
2020-10-17 21:00:00 21 8 Nordeste 18 Nordeste 0 1014.2 -- 67
2020-10-17 20:00:00 20.9 11 Este 18 Este 0 1013.6 -- 70
2020-10-17 19:00:00 21.4 12 Este 21 Este 0 1013.6 -- 72
2020-10-17 18:00:00 22.5 11 Este 17 Este 0 1013.9 -- 66
2020-10-17 17:00:00 22.7 11 Este 17 Este 0 1014 -- 63
2020-10-17 16:00:00 22.4 12 Sudeste 21 Este 0 1014.4 -- 67
2020-10-17 15:00:00 23.3 15 Este 24 Este 0 1014.7 -- 63
2020-10-17 14:00:00 22.6 17 Este 24 Este 0 1015.3 -- 66
2020-10-17 13:00:00 22.3 15 Este 22 Este 0 1015.7 -- 67
2020-10-17 12:00:00 22.5 15 Este 28 Nordeste 0 1016.2 -- 66
2020-10-17 11:00:00 22.6 13 Nordeste 26 Nordeste 0 1016.3 -- 67
2020-10-17 10:00:00 21.6 11 Nordeste 21 Este 0 1015.8 -- 71
2020-10-17 09:00:00 19.9 8 Norte 22 Norte 0 1015.2 -- 77
2020-10-17 08:00:00 18.4 11 Norte 15 Norte 0 1015.2 -- 80
2020-10-17 07:00:00 18.6 10 Norte 17 Noroeste 0 1015.1 -- 78
2020-10-17 06:00:00 17.9 12 Norte 15 Norte 0 1015 -- 78
2020-10-17 05:00:00 18.2 12 Norte 17 Norte 0 1015.5 -- 76
2020-10-17 04:00:00 18.6 12 Norte 15 Norte 0 1015.8 -- 76
2020-10-17 03:00:00 19.1 11 Norte 13 Norte 0 1015.9 -- 74
2020-10-17 02:00:00 19.4 9 Noroeste 15 Norte 0 1016.6 -- 74
2020-10-17 01:00:00 19.3 13 Norte 15 Noroeste 0 1017.1 -- 74
2020-10-17 00:00:00 19.7 10 Norte 13 Noroeste 0 1017.5 -- 73
2020-10-16 23:00:00 20.4 6 Norte 11 Noroeste 0 1017.7 -- 70
2020-10-16 22:00:00 21.1 8 Nordeste 22 Norte 0 1017.5 -- 67
2020-10-16 21:00:00 21.4 16 Nordeste 33 Norte 0 1016.8 -- 65
2020-10-16 20:00:00 21.8 23 Norte 33 Norte 0 1016.4 -- 64
2020-10-16 19:00:00 23.4 25 Norte 33 Nordeste 0 1016 -- 58
2020-10-16 18:00:00 24.9 26 Norte 39 Nordeste 0 1015.7 -- 53
2020-10-16 17:00:00 25.8 21 Nordeste 35 Norte 0 1015.7 -- 53
2020-10-16 16:00:00 26.6 25 Norte 41 Norte 0 1015.8 -- 47
2020-10-16 15:00:00 27 21 Norte 35 Norte 0 1015.8 -- 47
2020-10-16 14:00:00 26.4 17 Nordeste 33 Nordeste 0 1016.3 -- 51
2020-10-16 13:00:00 25.4 18 Nordeste 37 Este 0 1017.2 -- 55
2020-10-16 12:00:00 24.7 16 Este 32 Este 0 1017.8 -- 59
2020-10-16 11:00:00 23.8 18 Nordeste 30 Nordeste 0 1017.9 -- 60
2020-10-16 10:00:00 22.7 19 Nordeste 30 Nordeste 0 1017.6 1.5 62
2020-10-16 09:00:00 20.5 12 Norte 15 Norte 0 1017 1.1 74
2020-10-16 08:00:00 18.7 13 Norte 17 Norte 0 1016.7 0.5 80
2020-10-16 07:00:00 17.9 12 Norte 13 Norte 0 1016.1 -- 81
2020-10-16 06:00:00 18.5 10 Norte 15 Norte 0 1015.9 -- 80
2020-10-16 05:00:00 18.6 8 Norte 11 Norte 0 1016.2 -- 78
2020-10-16 04:00:00 18.7 6 Norte 13 Norte 0 1016.5 -- 78
2020-10-16 03:00:00 19.4 12 Norte 21 Nordeste 0 1016.7 -- 75
2020-10-16 02:00:00 20.4 13 Nordeste 21 Nordeste 0 1016.7 -- 76
2020-10-16 01:00:00 20.6 14 Nordeste 24 Nordeste 0 1016.9 -- 74
2020-10-16 00:00:00 20.9 12 Nordeste 22 Nordeste 0 1017.6 -- 75
2020-10-15 23:00:00 21.2 14 Nordeste 24 Nordeste 0 1017.5 -- 73
2020-10-15 22:00:00 21.4 15 Nordeste 28 Norte 0 1017 -- 71
2020-10-15 21:00:00 21.8 15 Nordeste 30 Nordeste 0 1016.5 -- 70
2020-10-15 20:00:00 22.1 19 Nordeste 32 Nordeste 0 1015.9 -- 72
2020-10-15 19:00:00 23.1 21 Nordeste 37 Nordeste 0 1015.7 -- 66
2020-10-15 18:00:00 24.7 23 Nordeste 41 Nordeste 0 1015.5 -- 59
2020-10-15 17:00:00 25.3 23 Nordeste 39 Nordeste 0 1015.5 -1.1 58
2020-10-15 16:00:00 25.9 19 Nordeste 33 Este 0 1015.6 -- 55
2020-10-15 15:00:00 25.2 22 Este 35 Este 0 1016 -- 61
2020-10-15 14:00:00 25.4 21 Este 37 Este 0 1016.6 -- 58
2020-10-15 13:00:00 25.1 18 Este 39 Este 0 1017.1 -- 59
2020-10-15 12:00:00 24.6 21 Nordeste 35 Nordeste 0 1017.4 -- 60
2020-10-15 11:00:00 23.9 20 Nordeste 33 Nordeste 0 1017.8 -- 61
2020-10-15 10:00:00 22.3 17 Norte 32 Norte 0 1017.7 -- 66
2020-10-15 09:00:00 20.9 18 Norte 28 Norte 0 1017.5 -- 71
2020-10-15 08:00:00 19.7 13 Norte 22 Nordeste 0 1016.8 -- 75
2020-10-15 07:00:00 20.2 12 Nordeste 35 Nordeste 0 1016 -- 73
2020-10-15 06:00:00 21 19 Nordeste 33 Nordeste 0 1015.5 -- 70
2020-10-15 05:00:00 21.6 18 Nordeste 30 Nordeste 0 1015.6 -- 74
2020-10-15 04:00:00 21.8 15 Nordeste 24 Nordeste 0 1016.2 -- 70
2020-10-15 03:00:00 21.7 17 Nordeste 30 Nordeste 0 1016.5 -- 72
2020-10-15 02:00:00 21.8 14 Nordeste 28 Nordeste 0 1016.7 -- 71
2020-10-15 01:00:00 21.7 16 Nordeste 26 Nordeste 0 1017.2 -- 73
2020-10-15 00:00:00 21.1 14 Nordeste 28 Nordeste 0 1017.6 -- 76
2020-10-14 23:00:00 21.3 21 Nordeste 30 Nordeste 0 1017.4 -- 74
2020-10-14 22:00:00 21.4 21 Nordeste 33 Nordeste 0 1016.8 -- 74
2020-10-14 21:00:00 21.7 22 Nordeste 32 Nordeste 0 1016.4 -- 72
2020-10-14 20:00:00 22 23 Norte 39 Norte 0 1016 -- 73
2020-10-14 19:00:00 23.6 31 Norte 41 Norte 0 1015.2 -- 65
2020-10-14 18:00:00 25.7 25 Norte 37 Norte 0 1015.4 -- 57
2020-10-14 17:00:00 27.2 19 Norte 32 Norte 0 1015.4 -- 52
2020-10-14 16:00:00 26.9 18 Este 32 Este 0 1015.3 -- 58
2020-10-14 15:00:00 28.3 15 Nordeste 39 Nordeste 0 1015.4 -- 50
2020-10-14 14:00:00 26.2 22 Este 39 Este 0 1015.8 -- 58
2020-10-14 13:00:00 26.3 22 Este 41 Este 0 1016.4 -- 60
2020-10-14 12:00:00 27.4 17 Nordeste 28 Este 0 1016.8 -- 33
2020-10-14 11:00:00 25.4 13 Norte 24 Nordeste 0 1017.1 -- 51
2020-10-14 10:00:00 23 13 Norte 21 Nordeste 0 1017.1 -- 69
2020-10-14 09:00:00 19.7 9 Norte 17 Norte 0 1016.5 -- 74
2020-10-14 08:00:00 17.8 12 Norte 18 Norte 0 1016.2 -- 86
2020-10-14 07:00:00 18.1 10 Norte 18 Norte 0 1016 -- 83
2020-10-14 06:00:00 18.5 10 Norte 15 Norte 0 1015.9 -- 87
2020-10-14 05:00:00 20 6 Nordeste 18 Nordeste 0 1015.5 -- 84
2020-10-14 04:00:00 20.2 10 Nordeste 26 Nordeste 0 1015.3 -- 83
2020-10-14 03:00:00 20.6 16 Nordeste 24 Nordeste 0 1015.4 -- 84
2020-10-14 02:00:00 20.4 9 Este 41 Norte 0 1015.4 -- 81
2020-10-14 01:00:00 20.8 30 Norte 50 Norte 0 1015.4 -- 84
2020-10-14 00:00:00 21.1 33 Norte 50 Norte 0 1015.6 -- 80
2020-10-13 23:00:00 21.7 39 Norte 50 Norte 0 1015.5 -- 77
2020-10-13 22:00:00 22.1 30 Norte 42 Norte 0 1015.4 -- 80
2020-10-13 21:00:00 22.5 29 Norte 41 Norte 0 1015.3 -- 79
2020-10-13 20:00:00 23.3 33 Norte 41 Norte 0 1014.5 -- 73
2020-10-13 19:00:00 25.1 32 Norte 39 Norte 0 1014.1 -- 59
2020-10-13 18:00:00 27.9 23 Nordeste 39 Nordeste 0 1013.8 -- 35
2020-10-13 17:00:00 28.6 24 Nordeste 39 Este 0 1013.5 -- 32
2020-10-13 16:00:00 29.6 19 Este 37 Este 0 1014 -- 31
2020-10-13 15:00:00 30.3 23 Nordeste 35 Nordeste 0 1014.1 -- 29
2020-10-13 14:00:00 29.4 22 Este 35 Este 0 1015 -- 33
2020-10-13 13:00:00 29.2 19 Este 39 Nordeste 0 1015.6 -- 35
2020-10-13 12:00:00 29 25 Nordeste 41 Nordeste 0 1015.5 -- 35
2020-10-13 11:00:00 27.8 23 Nordeste 39 Nordeste 0 1015.6 1.9 40
2020-10-13 10:00:00 26.2 24 Nordeste 37 Nordeste 0 1014.9 -- 46
2020-10-13 09:00:00 -- -- -- -- -- -- -- -- --
2020-10-13 08:00:00 23.6 24 Nordeste 33 Norte 0 1013.7 -- 49
2020-10-13 07:00:00 24.8 27 Nordeste 42 Nordeste 0 1012.8 -- 34
2020-10-13 06:00:00 24.1 22 Nordeste 39 Nordeste 0 1012.3 -- 38
2020-10-13 05:00:00 23.6 24 Nordeste 35 Nordeste 0 1012.9 -1.1 52
2020-10-13 04:00:00 23.7 20 Nordeste 32 Nordeste 0 1013.1 -- 53
2020-10-13 03:00:00 -- -- -- -- -- -- -- -- --
2020-10-13 02:00:00 24.3 17 Nordeste 30 Nordeste 0 1014 -0.4 53
2020-10-13 01:00:00 24.9 19 Nordeste 35 Nordeste 0 1014.3 -- 48
2020-10-13 00:00:00 -- -- -- -- -- -- -- -- --
2020-10-12 23:00:00 24.1 15 Nordeste 22 Nordeste 0 1014.4 0.7 55
2020-10-12 22:00:00 24 14 Nordeste 26 Nordeste 0 1014.5 -- 64
2020-10-12 21:00:00 24.3 17 Norte 32 Norte 0 1014.3 1.1 65
2020-10-12 20:00:00 25.5 21 Norte 30 Norte 0 1013.7 -- 61
2020-10-12 19:00:00 28.5 21 Norte 32 Nordeste 0 1013.3 0.4 50
2020-10-12 18:00:00 30.3 22 Nordeste 35 Este 0 1013.2 -- 38
2020-10-12 17:00:00 -- -- -- -- -- -- -- -- --
2020-10-12 16:00:00 32.7 23 Nordeste 37 Nordeste 0 1012.9 -- 30
2020-10-12 15:00:00 33.1 24 Nordeste 39 Nordeste 0 1013.2 -- 28
2020-10-12 14:00:00 32.6 26 Nordeste 37 Este 0 1013.9 -1 30
2020-10-12 13:00:00 32 22 Este 37 Este 0 1014.6 -- 30
2020-10-12 12:00:00 31 23 Nordeste 37 Nordeste 0 1014.9 0.8 34
2020-10-12 11:00:00 30.6 20 Nordeste 39 Nordeste 0 1014.9 -- 33
2020-10-12 10:00:00 28.4 23 Nordeste 32 Nordeste 0 1014.5 -- 37
2020-10-12 09:00:00 26 12 Nordeste 26 Nordeste 0 1014.1 -- 39
2020-10-12 08:00:00 24.4 14 Nordeste 24 Nordeste 0 1013.7 -- 42
2020-10-12 07:00:00 24.4 14 Nordeste 28 Nordeste 0 1013.2 -0.2 38
2020-10-12 06:00:00 24.7 18 Nordeste 32 Nordeste 0 1012.9 -- 39
2020-10-12 05:00:00 23.5 17 Nordeste 33 Nordeste 0 1013 -0.9 53
2020-10-12 04:00:00 23.2 19 Nordeste 32 Nordeste 0 1013.4 -- 59
2020-10-12 03:00:00 -- -- -- -- -- -- -- -- --
2020-10-12 02:00:00 23.4 21 Nordeste 37 Nordeste 0 1013.9 -- 60
2020-10-12 01:00:00 23 21 Nordeste 32 Nordeste 0 1014.4 -0.3 67
2020-10-12 00:00:00 23.4 19 Nordeste 35 Norte 0 1014.7 -- 61
2020-10-11 23:00:00 21.8 13 Norte 26 Norte 0 1014.9 -- 78
2020-10-11 22:00:00 22.2 19 Nordeste 28 Norte 0 1014.7 1.1 82
2020-10-11 21:00:00 22.6 23 Norte 35 Nordeste 0 1014 -- 81
2020-10-11 20:00:00 -- -- -- -- -- -- -- -- --
2020-10-11 19:00:00 -- -- -- -- -- -- -- -- --
2020-10-11 18:00:00 27.7 26 Norte 41 Norte 0 1013.5 -- 60
2020-10-11 17:00:00 29 27 Norte 37 Norte 0 1013.6 -1.5 56
2020-10-11 16:00:00 29.1 22 Norte 39 Nordeste 0 1014 -1.6 56
2020-10-11 15:00:00 28.1 26 Nordeste 37 Nordeste 0 1014.3 -- 57
2020-10-11 14:00:00 29.1 21 Nordeste 41 Nordeste 0 1015.1 -- 55
2020-10-11 13:00:00 29.2 21 Nordeste 37 Este 0 1015.6 -- 56
2020-10-11 12:00:00 27.3 21 Norte 37 Norte 0 1015.9 -- 61
2020-10-11 11:00:00 26.1 20 Norte 37 Norte 0 1016 -- 64
2020-10-11 10:00:00 23 25 Norte 33 Norte 0 1015.8 -- 77
2020-10-11 09:00:00 21.6 16 Nordeste 26 Nordeste 0 1015.5 -- 83
2020-10-11 08:00:00 20 12 Nordeste 21 Norte 0 1015.3 -- 87
2020-10-11 07:00:00 20.2 13 Norte 30 Nordeste 0 1015.1 -- 86
2020-10-11 06:00:00 21.3 16 Nordeste 30 Nordeste 0 1015 -- 83
2020-10-11 05:00:00 19.8 14 Norte 21 Nordeste 0 1014.9 -- 87
2020-10-11 04:00:00 20.2 15 Norte 21 Nordeste 0 1015.1 -- 87
2020-10-11 03:00:00 20.7 15 Norte 32 Nordeste 0 1015.5 -- 84
2020-10-11 02:00:00 20.6 11 Nordeste 24 Nordeste 0 1015.9 -- 86
2020-10-11 01:00:00 21 18 Norte 24 Norte 0 1016.2 -- 84
2020-10-11 00:00:00 21.6 10 Norte 26 Norte 0 1016.6 -- 82
2020-10-10 23:00:00 21.8 17 Norte 26 Nordeste 0 1016.5 -- 80
2020-10-10 22:00:00 22 20 Norte 33 Norte 0 1016.4 -- 81
2020-10-10 21:00:00 22.2 24 Norte 45 Norte 0 1015.9 -- 79
2020-10-10 20:00:00 22.7 27 Norte 45 Norte 0 1015.5 -- 76
2020-10-10 19:00:00 24.3 31 Norte 41 Norte 0 1015.4 -- 70
2020-10-10 18:00:00 25.9 29 Norte 41 Norte 0 1015.4 -- 64
2020-10-10 17:00:00 27 30 Norte 39 Norte 0 1015.5 -- 60
2020-10-10 16:00:00 28.5 25 Norte 41 Norte 0 1015.4 -- 55
2020-10-10 15:00:00 28.3 26 Nordeste 39 Nordeste 0 1015.8 -- 55
2020-10-10 14:00:00 27.8 25 Nordeste 39 Nordeste 0 1016.6 -- 56
2020-10-10 13:00:00 27.7 22 Norte 41 Norte 0 1017.5 -- 56
2020-10-10 12:00:00 26.8 30 Norte 45 Norte 0 1017.9 -- 59
2020-10-10 11:00:00 25.2 31 Norte 46 Norte 0 1017.9 -- 64
2020-10-10 10:00:00 24.1 25 Norte 35 Norte 0 1017.7 -- 68
2020-10-10 09:00:00 21.2 13 Nordeste 24 Norte 0 1017.4 -- 80
2020-10-10 08:00:00 20.1 9 Norte 22 Norte 0 1017.2 -- 85
2020-10-10 07:00:00 20.1 10 Nordeste 26 Norte 0 1016.8 -- 84
2020-10-10 06:00:00 20.7 18 Nordeste 33 Nordeste 0 1016.6 -- 84
2020-10-10 05:00:00 20.7 21 Nordeste 32 Norte 0 1016.3 -- 86
2020-10-10 04:00:00 20.7 20 Nordeste 41 Norte 0 1016.5 -- 85
2020-10-10 03:00:00 20.7 17 Nordeste 24 Norte 0 1016.8 -- 86
2020-10-10 02:00:00 21.1 22 Norte 35 Norte 0 1017.5 -- 85
2020-10-10 01:00:00 21.1 23 Norte 35 Norte 0 1017.5 -- 86
2020-10-10 00:00:00 21.5 26 Norte 33 Norte 0 1018.3 -- 85
2020-10-09 23:00:00 21.6 25 Norte 39 Norte 0 1018.2 -- 85
2020-10-09 22:00:00 21.9 28 Norte 42 Norte 0 1018 -- 85
2020-10-09 21:00:00 22.2 28 Norte 41 Norte 0 1017.7 -- 83
2020-10-09 20:00:00 22.8 31 Norte 45 Norte 0 1017.3 -- 80
2020-10-09 19:00:00 24.2 32 Norte 45 Norte 0 1017.3 -- 72
2020-10-09 18:00:00 25.8 33 Norte 46 Norte 0 1017.1 -- 66
2020-10-09 17:00:00 27.4 32 Norte 45 Norte 0 1016.9 -- 59
2020-10-09 16:00:00 28.2 33 Norte 42 Norte 0 1016.9 -- 56
2020-10-09 15:00:00 28.9 31 Norte 42 Norte 0 1017.1 -- 53
2020-10-09 14:00:00 29.1 29 Norte 41 Norte 0 1017.6 -- 52
2020-10-09 13:00:00 28.7 28 Norte 41 Norte 0 1018.3 -- 53
2020-10-09 12:00:00 27.3 25 Norte 35 Norte 0 1018.9 -- 60
2020-10-09 11:00:00 26.3 23 Norte 33 Norte 0 1019.1 -- 64
2020-10-09 10:00:00 23.9 23 Norte 32 Norte 0 1018.9 -- 75
2020-10-09 09:00:00 21.9 16 Nordeste 26 Nordeste 0 1018.7 -- 87
2020-10-09 08:00:00 20.8 12 Nordeste 24 Nordeste 0 1018.1 -- 91
2020-10-09 07:00:00 21.2 13 Nordeste 35 Norte 0 1017.7 -- 89
2020-10-09 06:00:00 21.3 27 Norte 37 Norte 0 1017.4 -- 89
2020-10-09 05:00:00 21.3 27 Norte 37 Norte 0 1017 -- 88
2020-10-09 04:00:00 21.6 27 Norte 35 Norte 0 1017.1 -- 87
2020-10-09 03:00:00 21.6 13 Nordeste 35 Norte 0 1017.8 -- 86
2020-10-09 02:00:00 21.8 25 Norte 37 Norte 0 1018 -- 83
2020-10-09 01:00:00 21.9 21 Norte 35 Norte 0 1018.2 -- 86
2020-10-09 00:00:00 22.1 23 Norte 41 Norte 0 1018.4 -- 83
2020-10-08 23:00:00 22.3 28 Norte 45 Noroeste 0 1018.3 -- 82
2020-10-08 22:00:00 22.6 33 Norte 50 Norte 0 1017.8 -- 80
2020-10-08 21:00:00 22.8 33 Norte 46 Norte 0 1017.4 -- 78
2020-10-08 20:00:00 23.3 29 Norte 45 Norte 0 1017.2 -- 78
2020-10-08 19:00:00 25 28 Norte 39 Norte 0 1017.1 -- 73
2020-10-08 18:00:00 25.8 10 Sudoeste 22 Sudoeste 0 1016.8 -- 73
2020-10-08 17:00:00 26.4 15 Sudoeste 26 Sudoeste 0 1016.8 -- 71
2020-10-08 16:00:00 27.4 10 Sudeste 32 Este 0 1016.7 -- 65
2020-10-08 15:00:00 26.4 20 Este 37 Este 0 1016.8 -- 71
2020-10-08 14:00:00 26.1 22 Este 33 Este 0 1017.4 -- 72
2020-10-08 13:00:00 26 23 Este 35 Este 0 1017.8 -- 72
2020-10-08 12:00:00 25.8 24 Este 33 Este 0 1018.1 -- 74
2020-10-08 11:00:00 26 17 Este 28 Este 0 1018.5 -- 64
2020-10-08 10:00:00 24 16 Nordeste 28 Nordeste 0 1018.2 -- 76
2020-10-08 09:00:00 22 12 Nordeste 18 Nordeste 0 1017.7 -- 86
2020-10-08 08:00:00 20.1 10 Nordeste 13 Norte 0 1017.4 -- 91
2020-10-08 07:00:00 20.8 8 Nordeste 26 Norte 0 1017.3 -- 91
2020-10-08 06:00:00 21.1 14 Norte 26 Norte 0 1017 -- 91
2020-10-08 05:00:00 21.1 17 Norte 32 Norte 0 1016.7 -- 91
2020-10-08 04:00:00 21.4 23 Norte 32 Norte 0 1016.7 -- 89
2020-10-08 03:00:00 21.3 17 Norte 26 Norte 0 1017.1 -- 89
2020-10-08 02:00:00 21.6 15 Norte 28 Norte 0 1017.7 -- 88
2020-10-08 01:00:00 22 14 Norte 28 Norte 0 1017.9 -- 77
2020-10-08 00:00:00 22.2 15 Norte 26 Norte 0 1018.1 -- 83
2020-10-07 23:00:00 22.5 15 Nordeste 28 Norte 0 1018 -- 82
2020-10-07 22:00:00 22.8 18 Norte 28 Norte 0 1017.8 -- 79
2020-10-07 21:00:00 23.9 13 Norte 24 Norte 0 1017.2 -- 71
2020-10-07 20:00:00 24.2 22 Norte 28 Norte 0 1016.8 -- 73
2020-10-07 19:00:00 26.6 20 Norte 26 Norte 0 1016.7 -- 61
2020-10-07 18:00:00 27.4 19 Nordeste 33 Este 0 1016 -- 60
2020-10-07 17:00:00 27 20 Este 35 Este 0 1015.8 -- 64
2020-10-07 16:00:00 26.4 24 Este 35 Este 0 1015.9 -- 68
2020-10-07 15:00:00 26.6 24 Este 35 Este 0 1016.2 -- 68
2020-10-07 14:00:00 27 22 Este 33 Este 0 1016.7 -- 67
2020-10-07 13:00:00 26.2 19 Este 32 Este 0 1017.6 -- 70
2020-10-07 12:00:00 26.5 19 Este 28 Este 0 1017.8 -- 68
2020-10-07 11:00:00 25.8 16 Nordeste 26 Norte 0 1017.5 -- 66
2020-10-07 10:00:00 23.4 9 Nordeste 17 Nordeste 0 1017.6 -- 70
2020-10-07 09:00:00 20.8 8 Norte 21 Nordeste 0 1017.2 -- 79
2020-10-07 08:00:00 21.3 12 Nordeste 24 Nordeste 0 1016.8 -- 84
2020-10-07 07:00:00 21.1 13 Nordeste 24 Nordeste 0 1016.4 -- 76
2020-10-07 06:00:00 20.9 14 Norte 21 Nordeste 0 1016.1 -- 68
2020-10-07 05:00:00 21.4 12 Nordeste 18 Nordeste 0 1016.2 -- 79
2020-10-07 04:00:00 21.4 11 Nordeste 26 Nordeste 0 1016.8 -- 83
2020-10-07 03:00:00 21.5 13 Nordeste 24 Nordeste 0 1016.9 -- 85
2020-10-07 02:00:00 21.5 12 Nordeste 24 Nordeste 0 1017.5 -- 84
2020-10-07 01:00:00 21.6 16 Nordeste 28 Nordeste 0 1017.9 -- 83
2020-10-07 00:00:00 21.6 13 Nordeste 28 Nordeste 0 1018.5 -- 83
2020-10-06 23:00:00 21.6 13 Nordeste 24 Nordeste 0 1018.8 -- 80
2020-10-06 22:00:00 21.9 13 Nordeste 30 Norte 0 1018.9 -- 76
2020-10-06 21:00:00 22.1 19 Nordeste 32 Nordeste 0 1018.4 -- 79
2020-10-06 20:00:00 22.6 22 Nordeste 32 Nordeste 0 1017.8 -- 71
2020-10-06 19:00:00 23.3 18 Nordeste 30 Nordeste 0 1017.6 -- 65
2020-10-06 18:00:00 24.2 18 Nordeste 32 Este 0 1017.1 -- 63
2020-10-06 17:00:00 25 20 Nordeste 35 Nordeste 0 1017.1 -- 59
2020-10-06 16:00:00 25.1 23 Nordeste 39 Nordeste 0 1016.9 -- 56
2020-10-06 15:00:00 24.5 26 Nordeste 39 Nordeste 0 1017.4 -- 60
2020-10-06 14:00:00 24.2 26 Nordeste 42 Nordeste 0 1017.9 -- 62
2020-10-06 13:00:00 23.2 29 Nordeste 45 Norte 0 1018.5 -- 69
2020-10-06 12:00:00 23.8 23 Nordeste 37 Nordeste 0 1019 -- 66
2020-10-06 11:00:00 22.9 23 Nordeste 33 Norte 0 1019.1 -- 68
2020-10-06 10:00:00 22.4 22 Nordeste 35 Nordeste 0 1018.6 -- 71
2020-10-06 09:00:00 21.6 17 Nordeste 28 Nordeste 0 1017.7 -- 76
2020-10-06 08:00:00 20.8 10 Nordeste 18 Norte 0 1017.7 -- 79
2020-10-06 07:00:00 20.9 13 Nordeste 22 Nordeste 0 1017.5 -- 78
2020-10-06 06:00:00 21 14 Nordeste 24 Nordeste 0 1017.2 -- 79
2020-10-06 05:00:00 21 15 Nordeste 28 Nordeste 0 1017.3 -- 76
2020-10-06 04:00:00 20.1 13 Norte 22 Norte 0 1017.4 -- 78
2020-10-06 03:00:00 20.2 14 Norte 22 Norte 0 1017.9 -- 75
2020-10-06 02:00:00 19.5 16 Norte 21 Norte 0 1018.5 -- 77
2020-10-06 01:00:00 19.9 12 Norte 17 Norte 0 1018.9 -- 75
2020-10-06 00:00:00 20.9 12 Nordeste 26 Nordeste 0 1019.2 -- 72
2020-10-05 23:00:00 21.1 15 Norte 30 Norte 0 1018.9 -- 71
2020-10-05 22:00:00 21.5 13 Nordeste 30 Nordeste 0 1019 -- 71
2020-10-05 21:00:00 22.1 21 Norte 32 Nordeste 0 1018.3 -- 69
2020-10-05 20:00:00 22.6 22 Nordeste 35 Nordeste 0 1017.8 -- 69
2020-10-05 19:00:00 23.3 23 Nordeste 41 Nordeste 0 1017.4 -- 68
2020-10-05 18:00:00 24.4 25 Nordeste 37 Nordeste 0 1016.8 -- 66
2020-10-05 17:00:00 24.9 27 Nordeste 42 Nordeste 0 1016.6 -- 62
2020-10-05 16:00:00 26 24 Nordeste 42 Nordeste 0 1016.7 -- 58
2020-10-05 15:00:00 26.6 27 Nordeste 45 Nordeste 0 1016.5 -- 54
2020-10-05 14:00:00 26.8 24 Nordeste 42 Nordeste 0 1016.8 -0.3 54
2020-10-05 13:00:00 26.1 29 Nordeste 42 Nordeste 0 1017.1 0.9 54
2020-10-05 12:00:00 24.9 24 Nordeste 42 Nordeste 0 1017.1 1.1 60
2020-10-05 11:00:00 24.7 25 Nordeste 41 Nordeste 0 1017.1 -- 59
2020-10-05 10:00:00 23.7 28 Nordeste 39 Norte 0 1016.2 -- 65
2020-10-05 09:00:00 21.9 20 Nordeste 30 Nordeste 0 1016 -- 77
2020-10-05 08:00:00 20.6 13 Nordeste 18 Nordeste 0 1015.5 -- 82
2020-10-05 07:00:00 20.9 13 Nordeste 22 Nordeste 0 1015.4 -- 80
2020-10-05 06:00:00 20.3 10 Nordeste 18 Nordeste 0 1015 -- 83
2020-10-05 05:00:00 19.1 13 Norte 24 Nordeste 0 1014.7 -- 83
2020-10-05 04:00:00 19.6 13 Norte 21 Norte 0 1014.8 -- 81
2020-10-05 03:00:00 19.5 13 Norte 18 Norte 0 1015.2 -- 80
2020-10-05 02:00:00 19.9 14 Norte 18 Nordeste 0 1015.4 -- 77
2020-10-05 01:00:00 20.8 9 Norte 24 Norte 0 1015.4 -- 74
2020-10-05 00:00:00 21.7 16 Norte 26 Nordeste 0 1015.5 -- 72
2020-10-04 23:00:00 22.3 19 Norte 28 Nordeste 0 1015.7 -- 68
2020-10-04 22:00:00 22.3 17 Nordeste 37 Norte 0 1015.6 -- 66
2020-10-04 21:00:00 22.4 27 Nordeste 35 Nordeste 0 1014.4 -- 71
2020-10-04 20:00:00 22.3 22 Norte 45 Norte 0 1013.7 -- 68
2020-10-04 19:00:00 23.4 27 Norte 50 Norte 0 1013.3 -- 65
2020-10-04 18:00:00 24.9 36 Norte 48 Norte 0 1013.1 -- 54
2020-10-04 17:00:00 25.9 32 Norte 46 Norte 0 1013.2 -- 53
2020-10-04 16:00:00 26.7 30 Norte 50 Norte 0 1013.1 -- 50
2020-10-04 15:00:00 26.8 30 Norte 46 Noroeste 0 1013.1 -- 50
2020-10-04 14:00:00 26.5 27 Norte 45 Norte 0 1013.5 -- 52
2020-10-04 13:00:00 25.4 29 Norte 41 Norte 0 1014 -- 57
2020-10-04 12:00:00 25.2 23 Norte 42 Nordeste 0 1014.2 -- 54
2020-10-04 11:00:00 24.3 18 Nordeste 28 Nordeste 0 1013.9 -- 63
2020-10-04 10:00:00 22.5 17 Nordeste 26 Nordeste 0 1013.4 -- 72
2020-10-04 09:00:00 20.9 15 Norte 24 Nordeste 0 1012.8 -- 84
2020-10-04 08:00:00 20 14 Norte 26 Nordeste 0 1011.8 -- 88
2020-10-04 07:00:00 20.6 15 Nordeste 30 Nordeste 0 1011.3 -- 88
2020-10-04 06:00:00 20.4 16 Norte 30 Nordeste 0 1010.9 -- 92
2020-10-04 05:00:00 20.6 14 Nordeste 22 Nordeste 0.8 1010.4 -- 95
2020-10-04 04:00:00 21 15 Nordeste 32 Norte 0.1 1010.5 -- 94
2020-10-04 03:00:00 21.6 18 Norte 33 Norte 0 1010.5 -- 91
2020-10-04 02:00:00 21.4 12 Norte 26 Norte 0 1011 -- 89
2020-10-04 01:00:00 21 20 Norte 30 Norte 0 1011.4 -- 91
2020-10-04 00:00:00 21.1 17 Norte 35 Norte 0.2 1011.9 -- 91
2020-10-03 23:00:00 21.8 17 Norte 24 Norte 0 1012.2 -- 86
2020-10-03 22:00:00 21.8 13 Norte 28 Norte 0 1012.1 -- 84
2020-10-03 21:00:00 22.1 19 Norte 35 Norte 0 1011.6 -- 81
2020-10-03 20:00:00 22.3 23 Norte 41 Norte 0 1011.2 -- 84
2020-10-03 19:00:00 24.3 30 Norte 45 Norte 0 1010.9 -- 67
2020-10-03 18:00:00 25.5 33 Norte 48 Norte 0 1010.7 -- 66
2020-10-03 17:00:00 26.8 38 Norte 58 Norte 0 1010.7 -- 59
2020-10-03 16:00:00 27.5 40 Norte 59 Norte 0 1010.9 -- 58
2020-10-03 15:00:00 27.6 37 Norte 59 Norte 0 1011 -- 59
2020-10-03 14:00:00 27.7 40 Norte 58 Nordeste 0 1011.4 -- 58
2020-10-03 13:00:00 27.4 39 Norte 55 Norte 0 1011.9 -- 59
2020-10-03 12:00:00 26.9 41 Norte 54 Norte 0 1012.1 -- 60
2020-10-03 11:00:00 26.1 38 Norte 55 Norte 0 1012.1 -- 66
2020-10-03 10:00:00 24.3 35 Norte 52 Norte 0 1011.7 -- 74
2020-10-03 09:00:00 22.5 27 Norte 39 Norte 0 1011.2 -- 82
2020-10-03 08:00:00 21.2 26 Norte 39 Norte 0 1011 -- 85
2020-10-03 07:00:00 20.9 21 Norte 46 Norte 0 1010.8 -- 83
2020-10-03 06:00:00 21.7 31 Norte 46 Norte 0 1010.5 -- 82
2020-10-03 05:00:00 22.1 21 Norte 32 Norte 0 1011 -- 82
2020-10-03 04:00:00 21.4 11 Nordeste 35 Norte 0 1011.4 -- 80
2020-10-03 03:00:00 21.9 23 Norte 35 Norte 0 1012 -- 79
2020-10-03 02:00:00 22.1 22 Norte 37 Norte 0 1012.5 -- 83
2020-10-03 01:00:00 22.6 22 Norte 41 Norte 0 1012.8 -- 76
2020-10-03 00:00:00 22.5 27 Norte 52 Norte 0 1013.3 -- 73
2020-10-02 23:00:00 22.9 35 Norte 48 Norte 0 1013.6 -- 70
2020-10-02 22:00:00 22.8 29 Norte 48 Norte 0 1013.3 -- 74
2020-10-02 21:00:00 22.8 35 Norte 48 Norte 0 1012.7 -- 75
2020-10-02 20:00:00 22.8 30 Norte 50 Norte 0 1012.4 -- 72
2020-10-02 19:00:00 24.1 36 Norte 50 Norte 0 1012.1 -- 63
2020-10-02 18:00:00 25.1 38 Norte 54 Norte 0 1012.2 -- 64
2020-10-02 17:00:00 26.5 34 Norte 58 Norte 0 1012.3 -- 51
2020-10-02 16:00:00 27.4 38 Norte 52 Norte 0 1012.4 -- 53
2020-10-02 15:00:00 27.6 35 Norte 61 Norte 0 1012.8 -- 49
2020-10-02 14:00:00 27.7 34 Norte 58 Norte 0 1013 -- 51
2020-10-02 13:00:00 26.9 39 Norte 55 Norte 0 1013.6 -- 53
2020-10-02 12:00:00 24.3 30 Norte 50 Norte 0 1014.2 -- 71
2020-10-02 11:00:00 25.6 30 Norte 45 Norte 0 1013.9 -- 60
2020-10-02 10:00:00 24.7 23 Norte 35 Norte 0 1013.8 -- 64
2020-10-02 09:00:00 22.8 14 Nordeste 39 Norte 0 1013.4 -- 65
2020-10-02 08:00:00 21.8 27 Norte 39 Norte 0 1013.1 -- 67
2020-10-02 07:00:00 21.7 13 Nordeste 32 Norte 0 1012.8 -- 66
2020-10-02 06:00:00 21.5 13 Norte 39 Norte 0 1012.7 -- 64
2020-10-02 05:00:00 21.6 18 Norte 42 Norte 0 1013 -- 63
2020-10-02 04:00:00 22.1 26 Norte 41 Norte 0 1013.5 -- 62
2020-10-02 03:00:00 22.2 28 Norte 39 Norte 0 1014 -- 70
2020-10-02 02:00:00 22.3 30 Norte 46 Norte 0 1014.4 -- 75
2020-10-02 01:00:00 22.1 21 Norte 35 Norte 0 1015.1 -- 69
2020-10-02 00:00:00 22.5 25 Norte 39 Norte 0 1015.5 -- 68
2020-10-01 23:00:00 22.3 17 Norte 32 Norte 0 1015.5 -- 70
2020-10-01 22:00:00 22.6 28 Norte 37 Norte 0 1015.2 -- 71
2020-10-01 21:00:00 22.3 24 Norte 41 Norte 0 1014.7 -- 69
2020-10-01 20:00:00 22.8 32 Norte 48 Norte 0 1014.2 -- 71
2020-10-01 19:00:00 24.3 32 Norte 46 Norte 0 1014.1 -- 63
2020-10-01 18:00:00 25.8 32 Norte 46 Norte 0 1014 -- 58
2020-10-01 17:00:00 27.1 36 Norte 52 Norte 0 1013.9 -- 50
2020-10-01 16:00:00 26.9 33 Norte 45 Norte 0 1014 -- 52
2020-10-01 15:00:00 26.8 32 Norte 46 Norte 0 1014.3 -- 51
2020-10-01 14:00:00 25.1 23 Norte 39 Norte 0 1015.2 -- 60
2020-10-01 13:00:00 24.4 23 Nordeste 39 Norte 0 1015.6 -- 67
2020-10-01 12:00:00 24.9 26 Norte 45 Norte 0 1015.7 -- 59
2020-10-01 11:00:00 24.2 28 Norte 37 Norte 0 1015.8 -- 64
2020-10-01 10:00:00 23.5 19 Norte 26 Norte 0 1015.7 -- 71
2020-10-01 09:00:00 21.9 14 Norte 22 Norte 0 1015.4 -- 81
2020-10-01 08:00:00 20.7 16 Norte 22 Norte 0 1014.9 -- 84
2020-10-01 07:00:00 20.3 12 Norte 26 Norte 0 1014.7 -- 84
2020-10-01 06:00:00 20.3 19 Norte 26 Norte 0 1014.7 -- 84
2020-10-01 05:00:00 20.2 12 Norte 26 Norte 0 1014.6 -- 83
2020-10-01 04:00:00 21 20 Norte 30 Norte 0 1014.8 -- 79
2020-10-01 03:00:00 20.9 15 Norte 28 Norte 0 1015.3 -- 78
2020-10-01 02:00:00 20.5 16 Norte 24 Norte 0 1015.9 -- 81
2020-10-01 01:00:00 21.1 18 Norte 24 Norte 0 1016.2 -- 78
2020-10-01 00:00:00 21.3 14 Norte 24 Nordeste 0 1016.5 -- 78
2020-09-30 23:00:00 21.2 13 Norte 24 Norte 0 1016.5 -- 78
2020-09-30 22:00:00 21.9 17 Norte 33 Norte 0 1016.3 -- 77
2020-09-30 21:00:00 22.4 21 Norte 37 Norte 0 1015.8 -- 74
2020-09-30 20:00:00 23.2 24 Norte 37 Norte 0 1015.4 -- 72
2020-09-30 19:00:00 24.8 29 Norte 39 Norte 0 1015.1 -- 62
2020-09-30 18:00:00 26.2 29 Norte 39 Norte 0 1014.9 -- 58
2020-09-30 17:00:00 27.7 26 Norte 35 Norte 0 1015 -- 52
2020-09-30 16:00:00 28.5 25 Norte 39 Norte 0 1015 -- 51
2020-09-30 15:00:00 28.4 21 Norte 39 Norte 0 1015.4 -- 50
2020-09-30 14:00:00 27.9 21 Norte 48 Norte 0 1015.8 -- 53
2020-09-30 13:00:00 26.7 12 Nordeste 26 Nordeste 0 1016.3 -- 58
2020-09-30 12:00:00 26.4 15 Norte 26 Nordeste 0 1016.5 -- 59
2020-09-30 11:00:00 25.8 17 Norte 30 Norte 0 1016.5 -- 57
2020-09-30 10:00:00 24.3 21 Norte 28 Norte 0 1016.3 -- 65
2020-09-30 09:00:00 21.7 11 Norte 18 Norte 0 1015.7 -- 82
2020-09-30 08:00:00 20.3 13 Norte 17 Norte 0 1015.3 -- 87
2020-09-30 07:00:00 20 11 Norte 15 Norte 0 1015.2 -- 88
2020-09-30 06:00:00 20.3 12 Norte 21 Noroeste 0 1014.8 -- 86
2020-09-30 05:00:00 20.5 14 Norte 21 Norte 0 1014.9 -- 84
2020-09-30 04:00:00 20.2 15 Norte 18 Noroeste 0 1015.1 -- 84
2020-09-30 03:00:00 20.6 10 Norte 17 Norte 0 1015.2 -- 82
2020-09-30 02:00:00 20.6 14 Norte 18 Norte 0 1015.5 -- 82
2020-09-30 01:00:00 20.8 12 Norte 22 Norte 0 1016.1 -- 80
2020-09-30 00:00:00 21.2 15 Norte 24 Norte 0 1016.3 -- 77